Time;durP1;ratioP1;P1;durP2;ratioP2;P2;SDS_P1;SDS_P2;PMS_P1;PMS_P2;Temp;Humidity;BMP_temperature;BMP_pressure;BME280_temperature;BME280_humidity;BME280_pressure;Samples;Min_cycle;Max_cycle;Signal;HPM_P1;HPM_P2
2022/01/13 00:00:48;;;;;;;18.35;8.93;;;;;;;-148.16;100.00;58328.31;5093865;28;20044;-68
2022/01/13 00:03:34;;;;;;;16.23;7.45;;;;;;;-148.16;100.00;58328.31;5093323;28;20052;-68
2022/01/13 00:06:20;;;;;;;18.48;7.20;;;;;;;-148.16;100.00;58328.31;5093168;28;20040;-68
2022/01/13 00:09:06;;;;;;;19.55;7.97;;;;;;;-148.16;100.00;58328.31;5093705;28;20047;-69
2022/01/13 00:11:53;;;;;;;18.02;7.78;;;;;;;-148.16;100.00;58328.31;5077837;28;20048;-68
2022/01/13 00:14:52;;;;;;;20.52;7.88;;;;;;;-148.16;100.00;58328.31;5092807;28;20040;-68
2022/01/13 00:26:27;;;;;;;17.95;8.23;;;;;;;-148.16;100.00;58328.31;5092964;28;20391;-69
2022/01/13 00:29:19;;;;;;;20.50;8.63;;;;;;;-148.16;100.00;58328.31;5092809;28;20048;-68
2022/01/13 00:32:05;;;;;;;20.52;7.82;;;;;;;-148.16;100.00;58328.31;5078730;28;20040;-68
2022/01/13 00:34:52;;;;;;;22.67;8.75;;;;;;;-148.16;100.00;58328.31;5093047;28;20040;-68
2022/01/13 00:37:38;;;;;;;22.77;9.00;;;;;;;-148.16;100.00;58328.31;5091182;28;20451;-68
2022/01/13 00:40:23;;;;;;;16.20;7.85;;;;;;;-148.16;100.00;58328.31;5083047;28;20040;-68
2022/01/13 00:43:09;;;;;;;19.33;7.85;;;;;;;-148.16;100.00;58328.31;5092468;28;20444;-68
2022/01/13 00:45:55;;;;;;;24.38;9.25;;;;;;;-148.16;100.00;58328.31;5092550;28;20052;-68
2022/01/13 00:48:41;;;;;;;16.25;7.38;;;;;;;-148.16;100.00;58328.31;5098499;28;20044;-68
2022/01/13 00:51:27;;;;;;;22.60;9.18;;;;;;;-148.16;100.00;58328.31;5092434;28;20047;-67
2022/01/13 00:54:13;;;;;;;21.92;9.40;;;;;;;-148.16;100.00;58328.31;5092585;28;20048;-68
2022/01/13 00:56:59;;;;;;;19.70;8.68;;;;;;;-148.16;100.00;58328.31;5077935;28;20408;-68
2022/01/13 00:59:44;;;;;;;20.75;9.07;;;;;;;-148.16;100.00;58328.31;5092397;28;20048;-68
2022/01/13 01:02:30;;;;;;;21.02;10.32;;;;;;;-148.16;100.00;58328.31;5092464;28;20048;-68
2022/01/13 01:05:15;;;;;;;23.90;10.48;;;;;;;-148.16;100.00;58328.31;5092445;28;20426;-68
2022/01/13 01:08:03;;;;;;;30.58;10.55;;;;;;;-148.16;100.00;58328.31;5092645;28;20048;-68
2022/01/13 01:10:53;;;;;;;27.13;10.02;;;;;;;-148.16;100.00;58328.31;5083372;28;20052;-67
2022/01/13 01:13:39;;;;;;;24.70;9.60;;;;;;;-148.16;100.00;58328.31;5092255;28;20480;-68
2022/01/13 01:16:26;;;;;;;25.90;9.25;;;;;;;-148.16;100.00;58328.31;5092032;28;20048;-67
2022/01/13 01:19:14;;;;;;;21.67;9.55;;;;;;;-148.16;100.00;58328.31;5069602;28;20048;-67
2022/01/13 01:28:00;;;;;;;22.10;9.73;;;;;;;-148.16;100.00;58328.31;5091875;28;20070;-68
2022/01/13 01:30:48;;;;;;;21.77;8.38;;;;;;;-148.16;100.00;58328.31;5092135;28;20040;-67
2022/01/13 01:33:38;;;;;;;32.42;11.80;;;;;;;-148.16;100.00;58328.31;5092039;28;20048;-67
2022/01/13 01:36:24;;;;;;;26.98;9.85;;;;;;;-148.16;100.00;58328.31;5092176;28;20048;-67
2022/01/13 01:39:10;;;;;;;26.75;10.23;;;;;;;-148.16;100.00;58328.31;5091890;28;20040;-69
2022/01/13 01:41:56;;;;;;;24.05;9.10;;;;;;;-148.16;100.00;58328.31;5091067;28;20096;-68
2022/01/13 01:44:47;;;;;;;25.48;11.55;;;;;;;-148.16;100.00;58328.31;5096846;28;20048;-68
2022/01/13 01:47:34;;;;;;;24.60;9.80;;;;;;;-148.16;100.00;58328.31;5091378;28;20044;-68
2022/01/13 01:50:21;;;;;;;26.77;9.95;;;;;;;-148.16;100.00;58328.31;5096906;28;20048;-68
2022/01/13 01:53:07;;;;;;;24.77;10.82;;;;;;;-148.16;100.00;58328.31;5094757;28;20048;-69
2022/01/13 01:55:55;;;;;;;23.98;10.13;;;;;;;-148.16;100.00;58328.31;5094658;28;20495;-68
2022/01/13 01:58:42;;;;;;;28.35;10.98;;;;;;;-148.16;100.00;58328.31;5100490;28;20048;-68
2022/01/13 02:01:29;;;;;;;19.45;9.18;;;;;;;-148.16;100.00;58328.31;5095698;28;20487;-68
2022/01/13 02:04:15;;;;;;;22.55;10.65;;;;;;;-148.16;100.00;58328.31;5095023;28;20491;-68
2022/01/13 02:07:04;;;;;;;23.85;9.43;;;;;;;-148.16;100.00;58328.31;5095766;28;20107;-67
2022/01/13 02:09:52;;;;;;;22.40;10.10;;;;;;;-148.16;100.00;58328.31;5095937;28;20044;-68
2022/01/13 02:12:45;;;;;;;27.85;11.27;;;;;;;-148.16;100.00;58328.31;5088644;28;20480;-67
2022/01/13 02:15:37;;;;;;;24.00;10.55;;;;;;;-148.16;100.00;58328.31;5088428;28;20053;-68
2022/01/13 02:18:22;;;;;;;27.42;11.15;;;;;;;-148.16;100.00;58328.31;5075060;28;20040;-68
2022/01/13 02:21:10;;;;;;;25.17;10.15;;;;;;;-148.16;100.00;58328.31;5052052;28;20055;-68
2022/01/13 02:23:56;;;;;;;21.88;9.38;;;;;;;-148.16;100.00;58328.31;5066012;28;20044;-67
2022/01/13 02:26:42;;;;;;;26.65;10.25;;;;;;;-148.16;100.00;58328.31;5075233;28;20048;-69
2022/01/13 02:29:28;;;;;;;27.42;11.93;;;;;;;-148.16;100.00;58328.31;5074946;28;20048;-68
2022/01/13 02:32:14;;;;;;;22.23;10.38;;;;;;;-148.16;100.00;58328.31;5074921;28;20499;-68
2022/01/13 02:35:00;;;;;;;24.27;10.20;;;;;;;-148.16;100.00;58328.31;5075020;28;20045;-68
2022/01/13 02:37:46;;;;;;;20.13;9.68;;;;;;;-148.16;100.00;58328.31;5074636;28;20479;-68
2022/01/13 02:40:32;;;;;;;25.75;10.57;;;;;;;-148.16;100.00;58328.31;5074852;28;20408;-68
2022/01/13 02:43:17;;;;;;;24.83;10.73;;;;;;;-148.16;100.00;58328.31;5074787;28;20048;-68
2022/01/13 02:47:04;;;;;;;19.42;9.70;;;;;;;-148.16;100.00;58328.31;5074381;28;20487;-67
2022/01/13 02:49:39;;;;;;;22.23;9.73;;;;;;;-148.16;100.00;58328.31;5074631;28;20048;-67
2022/01/13 02:52:25;;;;;;;23.25;9.88;;;;;;;-148.16;100.00;58328.31;5079966;28;20052;-67
2022/01/13 02:55:11;;;;;;;26.08;11.02;;;;;;;-148.16;100.00;58328.31;5073415;28;20124;-68
2022/01/13 02:57:56;;;;;;;24.08;9.48;;;;;;;-148.16;100.00;58328.31;5074181;28;20041;-68
2022/01/13 03:00:43;;;;;;;24.23;11.55;;;;;;;-148.16;100.00;58328.31;5074352;28;20044;-68
2022/01/13 03:03:30;;;;;;;26.15;12.05;;;;;;;-148.16;100.00;58328.31;5073970;28;20037;-68
2022/01/13 03:06:32;;;;;;;27.23;10.70;;;;;;;-148.16;100.00;58328.31;5065095;28;20052;-68
2022/01/13 03:09:24;;;;;;;25.40;9.60;;;;;;;-148.16;100.00;58328.31;5074230;28;20041;-68
2022/01/13 03:12:11;;;;;;;21.25;10.43;;;;;;;-148.16;100.00;58328.31;5074255;28;20452;-67
2022/01/13 03:14:57;;;;;;;24.42;10.82;;;;;;;-148.16;100.00;58328.31;5058553;28;20372;-67
2022/01/13 03:17:42;;;;;;;27.90;11.63;;;;;;;-148.16;100.00;58328.31;5064617;28;20040;-68
2022/01/13 03:20:28;;;;;;;21.83;10.63;;;;;;;-148.16;100.00;58328.31;5073834;28;20041;-68
2022/01/13 03:23:18;;;;;;;23.65;9.80;;;;;;;-148.16;100.00;58328.31;5059162;28;20052;-69
2022/01/13 03:26:05;;;;;;;25.15;10.15;;;;;;;-148.16;100.00;58328.31;5050579;28;20040;-68
2022/01/13 03:28:54;;;;;;;21.02;9.57;;;;;;;-148.16;100.00;58328.31;5092090;28;20479;-68
2022/01/13 03:31:41;;;;;;;22.08;9.52;;;;;;;-148.16;100.00;58328.31;5094348;28;20044;-69
2022/01/13 03:34:28;;;;;;;22.75;10.05;;;;;;;-148.16;100.00;58328.31;5098952;28;20044;-67
2022/01/13 03:37:14;;;;;;;22.10;9.23;;;;;;;-148.16;100.00;58328.31;5094137;28;20048;-68
2022/01/13 03:40:00;;;;;;;22.98;10.45;;;;;;;-148.16;100.00;58328.31;5093907;28;20052;-68
2022/01/13 03:42:47;;;;;;;18.42;8.60;;;;;;;-148.16;100.00;58328.31;5093758;28;20044;-68
2022/01/13 03:45:33;;;;;;;21.88;9.48;;;;;;;-148.16;100.00;58328.31;5093839;28;20052;-68
2022/01/13 03:48:19;;;;;;;25.30;10.60;;;;;;;-148.16;100.00;58328.31;5093558;28;20052;-69
2022/01/13 03:51:05;;;;;;;21.08;9.25;;;;;;;-148.16;100.00;58328.31;5093712;28;20044;-69
2022/01/13 03:54:03;;;;;;;24.17;11.10;;;;;;;-148.16;100.00;58328.31;5098019;28;20040;-68
2022/01/13 03:57:13;;;;;;;22.40;9.30;;;;;;;-148.16;100.00;58328.31;5099356;28;20043;-69
2022/01/13 04:00:49;;;;;;;21.83;10.02;;;;;;;-148.16;100.00;58328.31;5092592;28;20052;-68
2022/01/13 04:03:36;;;;;;;24.48;9.80;;;;;;;-148.16;100.00;58328.31;5058633;28;20040;-68
2022/01/13 04:06:21;;;;;;;22.83;10.07;;;;;;;-148.16;100.00;58328.31;5086983;28;20044;-68
2022/01/13 04:09:29;;;;;;;21.33;9.05;;;;;;;-148.16;100.00;58328.31;5077879;28;20048;-67
2022/01/13 04:12:17;;;;;;;21.13;9.25;;;;;;;-148.16;100.00;58328.31;5075342;28;20055;-68
2022/01/13 04:15:10;;;;;;;22.88;8.65;;;;;;;-148.16;100.00;58328.31;5072458;28;20051;-67
2022/01/13 04:17:57;;;;;;;24.10;10.38;;;;;;;-148.16;100.00;58328.31;5080185;28;20058;-67
2022/01/13 04:20:43;;;;;;;19.20;8.60;;;;;;;-148.16;100.00;58328.31;5111720;28;20035;-68
2022/01/13 04:23:29;;;;;;;20.48;8.98;;;;;;;-148.16;100.00;58328.31;5111527;28;20051;-67
2022/01/13 04:26:19;;;;;;;23.92;9.43;;;;;;;-148.16;100.00;58328.31;5113914;28;20475;-68
2022/01/13 04:31:57;;;;;;;22.80;9.10;;;;;;;-148.16;100.00;58328.31;5093060;28;20487;-68
2022/01/13 04:34:43;;;;;;;22.27;9.88;;;;;;;-148.16;100.00;58328.31;5092992;28;20348;-68
2022/01/13 04:37:28;;;;;;;20.00;8.52;;;;;;;-148.16;100.00;58328.31;5077533;28;20036;-68
2022/01/13 04:40:14;;;;;;;21.00;9.57;;;;;;;-148.16;100.00;58328.31;5092976;28;20052;-68
2022/01/13 04:43:00;;;;;;;23.40;9.10;;;;;;;-148.16;100.00;58328.31;5092957;28;20395;-67
2022/01/13 04:45:47;;;;;;;20.50;8.65;;;;;;;-148.16;100.00;58328.31;5092727;28;20052;-68
2022/01/13 04:48:33;;;;;;;21.50;8.93;;;;;;;-148.16;100.00;58328.31;5092805;28;20044;-68
2022/01/13 04:51:19;;;;;;;23.02;9.00;;;;;;;-148.16;100.00;58328.31;5092657;28;20040;-69
2022/01/13 04:54:05;;;;;;;23.25;9.07;;;;;;;-148.16;100.00;58328.31;5092932;28;20056;-67
2022/01/13 04:59:37;;;;;;;24.17;10.32;;;;;;;-148.16;100.00;58328.31;5092252;28;20036;-68
2022/01/13 05:02:24;;;;;;;21.25;8.88;;;;;;;-148.16;100.00;58328.31;5092804;28;20488;-68
2022/01/13 05:05:10;;;;;;;18.80;7.80;;;;;;;-148.16;100.00;58328.31;5092707;28;20044;-68
2022/01/13 05:07:56;;;;;;;23.05;9.82;;;;;;;-148.16;100.00;58328.31;5092640;28;20048;-67
2022/01/13 05:10:41;;;;;;;17.08;7.97;;;;;;;-148.16;100.00;58328.31;5091466;28;20040;-67
2022/01/13 05:13:27;;;;;;;25.42;9.88;;;;;;;-148.16;100.00;58328.31;5092871;28;20052;-67
2022/01/13 05:16:23;;;;;;;20.10;8.57;;;;;;;-148.16;100.00;58328.31;5097468;28;20471;-68
2022/01/13 05:19:14;;;;;;;22.92;10.02;;;;;;;-148.16;100.00;58328.31;5103480;28;20044;-68
2022/01/13 05:24:46;;;;;;;16.60;7.60;;;;;;;-148.16;100.00;58328.31;5084444;28;20048;-68
2022/01/13 05:27:32;;;;;;;18.77;8.90;;;;;;;-148.16;100.00;58328.31;5077763;28;20740;-67
2022/01/13 05:30:18;;;;;;;20.80;9.45;;;;;;;-148.16;100.00;58328.31;5065738;28;20045;-67
2022/01/13 05:33:04;;;;;;;20.08;9.05;;;;;;;-148.16;100.00;58328.31;5081411;28;20056;-69
2022/01/13 05:35:50;;;;;;;20.70;8.23;;;;;;;-148.16;100.00;58328.31;5075476;28;20041;-66
2022/01/13 05:38:37;;;;;;;25.50;9.10;;;;;;;-148.16;100.00;58328.31;5075730;28;20105;-68
2022/01/13 05:41:24;;;;;;;22.92;10.27;;;;;;;-148.16;100.00;58328.31;5075618;28;20053;-58
2022/01/13 05:44:10;;;;;;;20.65;9.82;;;;;;;-148.16;100.00;58328.31;5075419;28;20045;-67
2022/01/13 05:46:55;;;;;;;20.13;9.32;;;;;;;-148.16;100.00;58328.31;5074368;28;20049;-68
2022/01/13 05:49:42;;;;;;;16.15;7.30;;;;;;;-148.16;100.00;58328.31;5052772;28;20053;-68
2022/01/13 05:52:28;;;;;;;22.25;8.63;;;;;;;-148.16;100.00;58328.31;5081518;28;20040;-68
2022/01/13 05:55:15;;;;;;;19.80;9.00;;;;;;;-148.16;100.00;58328.31;5075508;28;20410;-68
2022/01/13 05:58:01;;;;;;;20.35;8.27;;;;;;;-148.16;100.00;58328.31;5075290;28;20400;-68
2022/01/13 06:00:47;;;;;;;21.63;8.75;;;;;;;-148.16;100.00;58328.31;5068749;28;20049;-69
2022/01/13 06:03:32;;;;;;;22.08;9.77;;;;;;;-148.16;100.00;58328.31;5075887;28;20040;-67
2022/01/13 06:06:18;;;;;;;22.00;9.32;;;;;;;-148.16;100.00;58328.31;5075681;28;20476;-68
2022/01/13 06:09:04;;;;;;;23.50;9.68;;;;;;;-148.16;100.00;58328.31;5075420;28;20052;-70
2022/01/13 06:11:59;;;;;;;25.58;11.05;;;;;;;-148.16;100.00;58328.31;5081595;28;20049;-67
2022/01/13 06:14:45;;;;;;;17.08;7.82;;;;;;;-148.16;100.00;58328.31;5075295;28;20045;-67
2022/01/13 06:17:31;;;;;;;24.38;9.65;;;;;;;-148.16;100.00;58328.31;5074527;28;20049;-67
2022/01/13 06:20:18;;;;;;;21.52;10.05;;;;;;;-148.16;100.00;58328.31;5060388;28;20067;-67
2022/01/13 06:23:05;;;;;;;22.52;9.30;;;;;;;-148.16;100.00;58328.31;5075263;28;20048;-68
2022/01/13 06:25:51;;;;;;;24.55;8.85;;;;;;;-148.16;100.00;58328.31;5075267;28;20044;-67
2022/01/13 06:28:36;;;;;;;23.85;10.02;;;;;;;-148.16;100.00;58328.31;5090807;28;20043;-67
2022/01/13 06:31:22;;;;;;;21.48;9.43;;;;;;;-148.16;100.00;58328.31;5095213;28;20474;-67
2022/01/13 06:34:08;;;;;;;27.48;10.00;;;;;;;-148.16;100.00;58328.31;5095320;28;20048;-68
2022/01/13 06:36:53;;;;;;;21.10;9.60;;;;;;;-148.16;100.00;58328.31;5095198;28;20491;-67
2022/01/13 06:39:39;;;;;;;20.17;8.77;;;;;;;-148.16;100.00;58328.31;5099464;28;20475;-67
2022/01/13 06:42:25;;;;;;;19.67;9.27;;;;;;;-148.16;100.00;58328.31;5095059;28;20044;-67
2022/01/13 06:45:11;;;;;;;24.40;9.90;;;;;;;-148.16;100.00;58328.31;5079206;28;20036;-67
2022/01/13 06:47:57;;;;;;;25.80;10.05;;;;;;;-148.16;100.00;58328.31;5091680;28;20044;-67
2022/01/13 06:50:43;;;;;;;20.17;8.80;;;;;;;-148.16;100.00;58328.31;5091908;28;20040;-66
2022/01/13 06:53:28;;;;;;;25.23;10.55;;;;;;;-148.16;100.00;58328.31;5092904;28;20040;-66
2022/01/13 06:56:14;;;;;;;23.63;9.57;;;;;;;-148.16;100.00;58328.31;5093218;28;20043;-67
2022/01/13 06:59:05;;;;;;;27.55;10.13;;;;;;;-148.16;100.00;58328.31;5093082;28;20043;-69
2022/01/13 07:01:51;;;;;;;26.67;11.25;;;;;;;-148.16;100.00;58328.31;5094237;28;20045;-67
2022/01/13 07:04:36;;;;;;;20.08;9.88;;;;;;;-148.16;100.00;58328.31;5094610;28;20070;-66
2022/01/13 07:07:23;;;;;;;19.80;8.77;;;;;;;-148.16;100.00;58328.31;5094589;28;20484;-67
2022/01/13 07:10:10;;;;;;;23.58;10.00;;;;;;;-148.16;100.00;58328.31;5094301;28;20040;-67
2022/01/13 07:12:56;;;;;;;23.73;10.27;;;;;;;-148.16;100.00;58328.31;5094423;28;20069;-66
2022/01/13 07:15:45;;;;;;;23.35;9.80;;;;;;;-148.16;100.00;58328.31;5093171;28;20044;-67
2022/01/13 07:18:38;;;;;;;23.95;10.23;;;;;;;-148.16;100.00;58328.31;5094408;28;20032;-66
2022/01/13 07:21:26;;;;;;;26.83;10.93;;;;;;;-148.16;100.00;58328.31;5093497;28;20040;-66
2022/01/13 07:24:12;;;;;;;26.88;9.70;;;;;;;-148.16;100.00;58328.31;5094289;28;20048;-67
2022/01/13 07:26:58;;;;;;;25.35;9.95;;;;;;;-148.16;100.00;58328.31;5094050;28;20056;-67
2022/01/13 07:29:44;;;;;;;23.15;8.80;;;;;;;-148.16;100.00;58328.31;5094355;28;20395;-67
2022/01/13 07:32:30;;;;;;;19.88;8.60;;;;;;;-148.16;100.00;58328.31;5093359;28;20040;-66
2022/01/13 07:35:15;;;;;;;25.73;10.38;;;;;;;-148.16;100.00;58328.31;5093037;28;20048;-66
2022/01/13 07:38:01;;;;;;;26.52;8.88;;;;;;;-148.16;100.00;58328.31;5092919;28;20044;-68
2022/01/13 07:40:47;;;;;;;21.15;9.25;;;;;;;-148.16;100.00;58328.31;5094041;28;20490;-66
2022/01/13 07:43:34;;;;;;;25.20;10.68;;;;;;;-148.16;100.00;58328.31;5093979;28;20036;-66
2022/01/13 07:46:24;;;;;;;21.27;9.45;;;;;;;-148.16;100.00;58328.31;5093955;28;20052;-67
2022/01/13 07:49:10;;;;;;;31.40;10.20;;;;;;;-148.16;100.00;58328.31;5093484;28;20387;-67
2022/01/13 07:51:59;;;;;;;19.70;8.40;;;;;;;-148.16;100.00;58328.31;5093622;28;20143;-67
2022/01/13 07:54:45;;;;;;;24.65;10.43;;;;;;;-148.16;100.00;58328.31;5099976;28;20048;-68
2022/01/13 07:57:31;;;;;;;23.15;9.52;;;;;;;-148.16;100.00;58328.31;5098566;28;20043;-67
2022/01/13 08:00:17;;;;;;;24.75;9.40;;;;;;;-148.16;100.00;58328.31;5099992;28;20047;-67
2022/01/13 08:03:03;;;;;;;19.27;9.10;;;;;;;-148.16;100.00;58328.31;5093875;28;20044;-66
2022/01/13 08:05:49;;;;;;;23.67;8.90;;;;;;;-148.16;100.00;58328.31;5093615;28;20051;-67
2022/01/13 08:08:35;;;;;;;26.65;10.18;;;;;;;-148.16;100.00;58328.31;5093467;28;20055;-67
2022/01/13 08:11:21;;;;;;;24.83;9.25;;;;;;;-148.16;100.00;58328.31;5099389;28;20044;-66
2022/01/13 08:14:07;;;;;;;24.88;10.27;;;;;;;-148.16;100.00;58328.31;5092310;28;20040;-66
2022/01/13 08:16:57;;;;;;;24.05;9.27;;;;;;;-148.16;100.00;58328.31;5093397;28;20052;-66
2022/01/13 08:19:45;;;;;;;22.38;10.07;;;;;;;-148.16;100.00;58328.31;5098272;28;20044;-67
2022/01/13 08:22:32;;;;;;;21.67;9.55;;;;;;;-148.16;100.00;58328.31;5093341;28;20044;-65
2022/01/13 08:25:18;;;;;;;21.98;9.75;;;;;;;-148.16;100.00;58328.31;5093214;28;20480;-66
2022/01/13 08:28:05;;;;;;;28.02;10.13;;;;;;;-148.16;100.00;58328.31;5093258;28;20051;-66
2022/01/13 08:30:51;;;;;;;20.08;9.57;;;;;;;-148.16;100.00;58328.31;5092066;28;20047;-66
2022/01/13 08:33:36;;;;;;;25.23;9.48;;;;;;;-148.16;100.00;58328.31;5093046;28;20044;-66
2022/01/13 08:36:23;;;;;;;27.13;10.18;;;;;;;-148.16;100.00;58328.31;5093124;28;20048;-66
2022/01/13 08:39:10;;;;;;;27.10;10.05;;;;;;;-148.16;100.00;58328.31;5093006;28;20040;-67
2022/01/13 08:41:56;;;;;;;25.52;8.52;;;;;;;-148.16;100.00;58328.31;5092859;28;20040;-66
2022/01/13 08:44:41;;;;;;;23.33;10.48;;;;;;;-148.16;100.00;58328.31;5093183;28;20036;-66
2022/01/13 08:47:27;;;;;;;21.88;9.05;;;;;;;-148.16;100.00;58328.31;5093018;28;20047;-66
2022/01/13 08:50:13;;;;;;;27.92;10.75;;;;;;;-148.16;100.00;58328.31;5092990;28;20135;-66
2022/01/13 08:52:59;;;;;;;28.38;11.13;;;;;;;-148.16;100.00;58328.31;5091819;28;20395;-66
2022/01/13 08:55:45;;;;;;;27.35;10.05;;;;;;;-148.16;100.00;58328.31;5097629;28;20048;-66
2022/01/13 08:58:31;;;;;;;26.45;9.98;;;;;;;-148.16;100.00;58328.31;5092576;28;20044;-67
2022/01/13 09:01:17;;;;;;;26.80;9.52;;;;;;;-148.16;100.00;58328.31;5091380;28;20033;-66
2022/01/13 09:04:02;;;;;;;24.23;9.43;;;;;;;-148.16;100.00;58328.31;5091408;28;20033;-66
2022/01/13 09:06:48;;;;;;;21.85;9.68;;;;;;;-148.16;100.00;58328.31;5092346;28;20044;-66
2022/01/13 09:09:35;;;;;;;25.02;8.82;;;;;;;-148.16;100.00;58328.31;5083062;28;20044;-67
2022/01/13 09:12:21;;;;;;;19.45;8.00;;;;;;;-148.16;100.00;58328.31;5092713;28;20052;-65
2022/01/13 09:15:32;;;;;;;22.88;9.05;;;;;;;-148.16;100.00;58328.31;5091039;28;20052;-66
2022/01/13 09:18:19;;;;;;;23.50;9.60;;;;;;;-148.16;100.00;58328.31;5092146;28;20052;-66
2022/01/13 09:21:06;;;;;;;20.48;10.25;;;;;;;-148.16;100.00;58328.31;5091307;28;20040;-66
2022/01/13 09:23:54;;;;;;;22.08;9.80;;;;;;;-148.16;100.00;58328.31;5091559;28;20480;-65
2022/01/13 09:26:40;;;;;;;23.50;9.23;;;;;;;-148.16;100.00;58328.31;5092557;28;20052;-67
2022/01/13 09:29:28;;;;;;;26.20;10.00;;;;;;;-148.16;100.00;58328.31;5092194;28;20040;-66
2022/01/13 09:32:13;;;;;;;26.65;10.88;;;;;;;-148.16;100.00;58328.31;5097128;28;20048;-67
2022/01/13 09:34:59;;;;;;;23.52;9.90;;;;;;;-148.16;100.00;58328.31;5092252;28;20056;-67
2022/01/13 09:37:45;;;;;;;24.02;10.13;;;;;;;-148.16;100.00;58328.31;5092066;28;20040;-67
2022/01/13 09:40:31;;;;;;;22.45;9.23;;;;;;;-148.16;100.00;58328.31;5097259;28;20044;-66
2022/01/13 09:43:18;;;;;;;21.23;9.38;;;;;;;-148.16;100.00;58328.31;5092342;28;20052;-66
2022/01/13 09:46:04;;;;;;;25.10;9.75;;;;;;;-148.16;100.00;58328.31;5098091;28;20056;-66
2022/01/13 09:48:50;;;;;;;24.70;10.02;;;;;;;-148.16;100.00;58328.31;5096546;28;20040;-67
2022/01/13 09:51:37;;;;;;;25.50;11.27;;;;;;;-148.16;100.00;58328.31;5092135;28;20456;-67
2022/01/13 09:54:23;;;;;;;24.27;10.75;;;;;;;-148.16;100.00;58328.31;5092465;28;20391;-67
2022/01/13 09:57:09;;;;;;;20.10;9.65;;;;;;;-148.16;100.00;58328.31;5092025;28;20063;-67
2022/01/13 09:59:58;;;;;;;25.67;11.15;;;;;;;-148.16;100.00;58328.31;5092030;28;20471;-66
2022/01/13 10:02:44;;;;;;;22.50;9.20;;;;;;;-148.16;100.00;58328.31;5091924;28;20040;-66
2022/01/13 10:05:34;;;;;;;23.35;9.77;;;;;;;-148.16;100.00;58328.31;5091049;28;20048;-66
2022/01/13 10:08:40;;;;;;;23.55;10.15;;;;;;;-148.16;100.00;58328.31;5096389;28;20509;-67
2022/01/13 10:11:26;;;;;;;17.85;8.18;;;;;;;-148.16;100.00;58328.31;5091916;28;20040;-65
2022/01/13 10:16:23;;;;;;;23.50;10.88;;;;;;;-148.16;100.00;58328.31;5094200;28;20081;-59
2022/01/13 10:17:30;;;;;;;21.83;10.73;;;;;;;-148.16;100.00;58328.31;5091980;28;20044;-45
2022/01/13 10:20:19;;;;;;;22.38;10.40;;;;;;;-148.16;100.00;58328.31;5101785;28;20048;-59
2022/01/13 10:23:07;;;;;;;25.55;11.23;;;;;;;-148.16;100.00;58328.31;5116008;28;20494;-59
2022/01/13 10:25:53;;;;;;;27.02;11.13;;;;;;;-148.16;100.00;58328.31;5099459;28;20403;-59
2022/01/13 10:28:39;;;;;;;23.70;10.65;;;;;;;-148.16;100.00;58328.31;5099509;28;20491;-58
2022/01/13 10:31:50;;;;;;;22.88;10.30;;;;;;;-148.16;100.00;58328.31;5087129;28;20040;-59
2022/01/13 10:34:42;;;;;;;22.90;10.60;;;;;;;-148.16;100.00;58328.31;5078679;28;20048;-61
2022/01/13 10:37:30;;;;;;;19.75;10.77;;;;;;;-148.16;100.00;58328.31;5101682;28;20040;-45
2022/01/13 10:40:23;;;;;;;24.00;10.88;;;;;;;-148.16;100.00;58328.31;5095363;28;20056;-59
2022/01/13 10:43:12;;;;;;;23.88;9.25;;;;;;;-148.16;100.00;58328.31;5092036;28;20039;-59
2022/01/13 10:45:57;;;;;;;22.90;10.85;;;;;;;-148.16;100.00;58328.31;5115800;28;20055;-59
2022/01/13 10:48:43;;;;;;;23.98;9.85;;;;;;;-148.16;100.00;58328.31;5098139;28;20048;-63
2022/01/13 10:51:29;;;;;;;20.38;9.68;;;;;;;-148.16;100.00;58328.31;5096951;28;20036;-61
2022/01/13 10:54:24;;;;;;;23.38;10.48;;;;;;;-148.16;100.00;58328.31;5085637;28;20040;-61
2022/01/13 10:57:18;;;;;;;24.05;10.00;;;;;;;-148.16;100.00;58328.31;5074613;28;20044;-62
2022/01/13 11:00:17;;;;;;;23.60;9.63;;;;;;;-148.16;100.00;58328.31;5087065;28;20039;-63
2022/01/13 11:03:16;;;;;;;24.80;9.60;;;;;;;-148.16;100.00;58328.31;5128861;27;20051;-62
2022/01/13 11:06:05;;;;;;;22.25;10.63;;;;;;;-148.16;100.00;58328.31;5083652;28;20047;-66
2022/01/13 11:08:50;;;;;;;22.50;9.32;;;;;;;-148.16;100.00;58328.31;5085394;28;20052;-63
2022/01/13 11:11:45;;;;;;;23.63;10.15;;;;;;;-148.16;100.00;58328.31;5106136;28;20047;-61
2022/01/13 11:14:31;;;;;;;23.17;9.50;;;;;;;-148.16;100.00;58328.31;5115033;28;20047;-69
2022/01/13 11:17:17;;;;;;;17.92;8.60;;;;;;;-148.16;100.00;58328.31;5114903;28;20048;-64
2022/01/13 11:20:05;;;;;;;20.50;9.27;;;;;;;-148.16;100.00;58328.31;5073810;28;20028;-63
2022/01/13 11:22:53;;;;;;;19.88;8.88;;;;;;;-148.16;100.00;58328.31;5071869;28;20047;-63
2022/01/13 11:25:39;;;;;;;22.33;8.85;;;;;;;-148.16;100.00;58328.31;5128562;27;20051;-65
2022/01/13 11:28:26;;;;;;;19.45;9.23;;;;;;;-148.16;100.00;58328.31;5100345;28;20131;-63
2022/01/13 11:31:12;;;;;;;20.50;9.18;;;;;;;-148.16;100.00;58328.31;5078890;28;20048;-62
2022/01/13 11:33:58;;;;;;;24.45;10.48;;;;;;;-148.16;100.00;58328.31;5073767;28;20049;-64
2022/01/13 11:36:44;;;;;;;22.10;8.88;;;;;;;-148.16;100.00;58328.31;5059002;28;20044;-62
2022/01/13 11:39:38;;;;;;;26.35;9.45;;;;;;;-148.16;100.00;58328.31;5073920;28;20141;-64
2022/01/13 11:42:24;;;;;;;25.83;9.70;;;;;;;-148.16;100.00;58328.31;5074151;28;20417;-63
2022/01/13 11:45:15;;;;;;;25.88;9.52;;;;;;;-148.16;100.00;58328.31;5073592;28;20041;-64
2022/01/13 11:48:14;;;;;;;26.60;10.30;;;;;;;-148.16;100.00;58328.31;5109500;28;20047;-64
2022/01/13 11:51:15;;;;;;;22.48;9.25;;;;;;;-148.16;100.00;58328.31;5093835;28;20051;-65
2022/01/13 11:54:04;;;;;;;23.10;9.25;;;;;;;-148.16;100.00;58328.31;5084371;28;20047;-63
2022/01/13 11:57:09;;;;;;;18.98;8.77;;;;;;;-148.16;100.00;58328.31;5083705;28;20040;-63
2022/01/13 11:59:54;;;;;;;19.58;8.88;;;;;;;-148.16;100.00;58328.31;5086723;28;20044;-64
2022/01/13 12:02:42;;;;;;;19.65;7.78;;;;;;;-148.16;100.00;58328.31;5073330;28;20041;-65
2022/01/13 12:05:29;;;;;;;20.60;7.78;;;;;;;-148.16;100.00;58328.31;5073253;28;20048;-63
2022/01/13 12:08:40;;;;;;;20.05;8.38;;;;;;;-148.16;100.00;58328.31;5064051;28;20044;-62
2022/01/13 12:11:40;;;;;;;22.67;8.73;;;;;;;-148.16;100.00;58328.31;5058493;28;20056;-63
2022/01/13 12:14:25;;;;;;;19.08;7.78;;;;;;;-148.16;100.00;58328.31;5072699;28;20044;-62
2022/01/13 12:17:24;;;;;;;17.88;7.22;;;;;;;-148.16;100.00;58328.31;5057966;28;20427;-59
2022/01/13 12:20:21;;;;;;;17.23;7.68;;;;;;;-148.16;100.00;58328.31;5073055;28;20040;-62
2022/01/13 12:23:43;;;;;;;18.58;8.65;;;;;;;-148.16;100.00;58328.31;5090414;28;20043;-64
2022/01/13 12:26:31;;;;;;;20.23;7.93;;;;;;;-148.16;100.00;58328.31;5093092;28;20040;-64
2022/01/13 12:29:22;;;;;;;19.88;7.75;;;;;;;-148.16;100.00;58328.31;5093410;28;20044;-61
2022/01/13 12:32:08;;;;;;;19.90;8.63;;;;;;;-148.16;100.00;58328.31;5091157;28;20550;-64
2022/01/13 12:34:54;;;;;;;20.13;8.82;;;;;;;-148.16;100.00;58328.31;5080172;28;20407;-65
2022/01/13 12:37:40;;;;;;;24.15;8.23;;;;;;;-148.16;100.00;58328.31;5072300;28;20045;-64
2022/01/13 12:40:26;;;;;;;21.38;8.65;;;;;;;-148.16;100.00;58328.31;5072643;28;20044;-64
2022/01/13 12:46:27;;;;;;;22.10;9.25;;;;;;;-148.16;100.00;58328.31;5113352;28;20451;-64
2022/01/13 12:49:13;;;;;;;20.83;8.93;;;;;;;-148.16;100.00;58328.31;5113299;28;20797;-64
2022/01/13 12:51:59;;;;;;;21.70;9.43;;;;;;;-148.16;100.00;58328.31;5097372;28;20047;-64
2022/01/13 12:54:46;;;;;;;23.00;9.43;;;;;;;-148.16;100.00;58328.31;5111433;28;20399;-63
2022/01/13 12:57:31;;;;;;;20.15;8.70;;;;;;;-148.16;100.00;58328.31;5092567;28;20051;-64
2022/01/13 13:00:21;;;;;;;17.02;6.90;;;;;;;-148.16;100.00;58328.31;5098393;28;20467;-64